Time;durP1;ratioP1;P1;durP2;ratioP2;P2;SDS_P1;SDS_P2;PMS_P1;PMS_P2;Temp;Humidity;BMP_temperature;BMP_pressure;BME280_temperature;BME280_humidity;BME280_pressure;Samples;Min_cycle;Max_cycle;Signal;HPM_P1;HPM_P2
2021/10/27 00:02:18;;;;;;;43.47;18.05;;;;;;;;;;5072829;28;20084;-68
2021/10/27 00:04:43;;;;;;;35.83;16.77;;;;;;;;;;5073361;28;20519;-68
2021/10/27 00:07:09;;;;;;;33.45;16.92;;;;;;;;;;5073332;28;20024;-66
2021/10/27 00:09:35;;;;;;;36.95;17.42;;;;;;;;;;5073327;28;20444;-66
2021/10/27 00:12:01;;;;;;;38.42;18.17;;;;;;;;;;5073099;28;20032;-68
2021/10/27 00:14:26;;;;;;;31.30;17.13;;;;;;;;;;5073185;28;20423;-67
2021/10/27 00:16:51;;;;;;;42.53;19.67;;;;;;;;;;5073189;28;20013;-67
2021/10/27 00:19:17;;;;;;;36.42;18.95;;;;;;;;;;5072975;28;20465;-68
2021/10/27 00:21:42;;;;;;;37.15;17.55;;;;;;;;;;5055035;28;20049;-66
2021/10/27 00:24:07;;;;;;;41.92;19.50;;;;;;;;;;5072912;28;20021;-67
2021/10/27 00:26:32;;;;;;;43.58;19.55;;;;;;;;;;5073016;28;20078;-68
2021/10/27 00:28:58;;;;;;;37.40;16.88;;;;;;;;;;5072900;28;20008;-67
2021/10/27 00:31:23;;;;;;;42.15;18.67;;;;;;;;;;5072571;28;20023;-67
2021/10/27 00:33:49;;;;;;;34.53;17.73;;;;;;;;;;5072759;28;20023;-66
2021/10/27 00:36:15;;;;;;;31.65;17.30;;;;;;;;;;5072870;28;20020;-68
2021/10/27 00:38:40;;;;;;;34.95;17.85;;;;;;;;;;5073040;28;20033;-66
2021/10/27 00:41:07;;;;;;;39.53;18.52;;;;;;;;;;5072735;28;20017;-67
2021/10/27 00:43:32;;;;;;;46.58;19.35;;;;;;;;;;5072878;28;20017;-68
2021/10/27 00:45:57;;;;;;;37.65;18.13;;;;;;;;;;5072511;28;20078;-66
2021/10/27 00:48:22;;;;;;;36.38;17.65;;;;;;;;;;5054710;28;20530;-66
2021/10/27 00:50:48;;;;;;;33.95;17.75;;;;;;;;;;5072783;28;20538;-68
2021/10/27 00:53:13;;;;;;;36.05;17.58;;;;;;;;;;5072872;28;20024;-69
2021/10/27 00:55:39;;;;;;;41.53;17.55;;;;;;;;;;5072479;28;20028;-69
2021/10/27 00:58:04;;;;;;;32.08;15.82;;;;;;;;;;5072895;28;20067;-69
2021/10/27 01:00:30;;;;;;;31.65;16.73;;;;;;;;;;5072673;28;20017;-68
2021/10/27 01:02:55;;;;;;;41.58;17.10;;;;;;;;;;5072196;28;20539;-67
2021/10/27 01:05:20;;;;;;;38.42;16.77;;;;;;;;;;5072480;28;20154;-68
2021/10/27 01:07:46;;;;;;;35.38;16.60;;;;;;;;;;5072359;28;20092;-68
2021/10/27 01:10:11;;;;;;;36.53;17.27;;;;;;;;;;5075191;28;20407;-67
2021/10/27 01:12:37;;;;;;;32.75;17.35;;;;;;;;;;5076851;28;20031;-68
2021/10/27 01:15:03;;;;;;;33.45;15.82;;;;;;;;;;5076210;28;20009;-66
2021/10/27 01:17:28;;;;;;;38.65;18.48;;;;;;;;;;5076134;28;20029;-67
2021/10/27 01:19:55;;;;;;;35.58;17.77;;;;;;;;;;5076033;28;20078;-67
2021/10/27 01:22:22;;;;;;;30.17;16.25;;;;;;;;;;5076187;28;20074;-68
2021/10/27 01:24:48;;;;;;;32.88;16.67;;;;;;;;;;5076166;28;20066;-67
2021/10/27 01:27:13;;;;;;;34.92;16.92;;;;;;;;;;5075982;28;20016;-68
2021/10/27 01:29:38;;;;;;;36.88;17.98;;;;;;;;;;5057756;28;20465;-67
2021/10/27 01:32:05;;;;;;;45.67;18.90;;;;;;;;;;5075900;28;20069;-67
2021/10/27 01:34:30;;;;;;;33.10;17.25;;;;;;;;;;5076032;28;20014;-68
2021/10/27 01:36:55;;;;;;;33.20;17.27;;;;;;;;;;5075917;28;20433;-67
2021/10/27 01:39:20;;;;;;;48.08;18.30;;;;;;;;;;5075713;28;20520;-68
2021/10/27 01:41:46;;;;;;;36.55;17.67;;;;;;;;;;5075664;28;20062;-67
2021/10/27 01:44:11;;;;;;;34.47;17.98;;;;;;;;;;5075730;28;20062;-67
2021/10/27 01:46:38;;;;;;;31.75;16.17;;;;;;;;;;5075899;28;20040;-68
2021/10/27 01:49:07;;;;;;;33.28;17.15;;;;;;;;;;5075704;28;20052;-66
2021/10/27 01:51:33;;;;;;;30.05;16.25;;;;;;;;;;5057770;28;20028;-66
2021/10/27 01:53:58;;;;;;;34.35;17.65;;;;;;;;;;5075471;28;20028;-68
2021/10/27 01:56:24;;;;;;;32.78;15.98;;;;;;;;;;5075575;28;20109;-68
2021/10/27 01:58:50;;;;;;;32.25;16.48;;;;;;;;;;5075440;28;20119;-67
2021/10/27 02:01:15;;;;;;;38.30;16.67;;;;;;;;;;5075536;28;20473;-66
2021/10/27 02:03:41;;;;;;;34.38;16.50;;;;;;;;;;5074829;28;20053;-68
2021/10/27 02:06:06;;;;;;;34.33;16.63;;;;;;;;;;5075194;28;20092;-67
2021/10/27 02:08:32;;;;;;;36.42;17.63;;;;;;;;;;5075311;28;20020;-67
2021/10/27 02:10:58;;;;;;;35.25;18.60;;;;;;;;;;5075748;28;20038;-68
2021/10/27 02:13:23;;;;;;;34.58;16.58;;;;;;;;;;5074884;28;20390;-67
2021/10/27 02:15:49;;;;;;;39.53;17.98;;;;;;;;;;5075132;28;20024;-68
2021/10/27 02:18:14;;;;;;;35.25;18.90;;;;;;;;;;5075292;28;20025;-68
2021/10/27 02:20:39;;;;;;;41.45;19.13;;;;;;;;;;5074884;28;20031;-67
2021/10/27 02:23:04;;;;;;;52.47;20.30;;;;;;;;;;5075735;28;20138;-67
2021/10/27 02:25:30;;;;;;;51.35;21.95;;;;;;;;;;5075053;28;20012;-66
2021/10/27 02:27:55;;;;;;;54.17;22.45;;;;;;;;;;5074795;28;20059;-65
2021/10/27 02:30:20;;;;;;;44.88;19.08;;;;;;;;;;5075191;28;20046;-67
2021/10/27 02:32:46;;;;;;;41.75;19.67;;;;;;;;;;5074802;28;20016;-67
2021/10/27 02:35:12;;;;;;;47.63;22.13;;;;;;;;;;5074959;28;20020;-68
2021/10/27 02:37:37;;;;;;;49.42;21.83;;;;;;;;;;5056482;28;20111;-68
2021/10/27 02:40:03;;;;;;;44.50;20.33;;;;;;;;;;5074983;28;20017;-68
2021/10/27 02:42:28;;;;;;;62.15;23.20;;;;;;;;;;5074508;28;20101;-66
2021/10/27 02:44:53;;;;;;;51.50;22.35;;;;;;;;;;5074826;28;20057;-69
2021/10/27 02:47:19;;;;;;;45.58;20.98;;;;;;;;;;5074722;28;20013;-66
2021/10/27 02:49:44;;;;;;;49.63;20.20;;;;;;;;;;5074293;28;20035;-67
2021/10/27 02:52:09;;;;;;;48.97;20.95;;;;;;;;;;5074734;28;20019;-67
2021/10/27 02:54:35;;;;;;;42.88;20.17;;;;;;;;;;5074710;28;20031;-68
2021/10/27 02:57:00;;;;;;;44.83;20.77;;;;;;;;;;5074853;28;20028;-69
2021/10/27 02:59:25;;;;;;;45.17;19.70;;;;;;;;;;5074111;28;20021;-68
2021/10/27 03:01:51;;;;;;;40.08;19.55;;;;;;;;;;5073663;28;20526;-67
2021/10/27 03:04:16;;;;;;;38.20;18.30;;;;;;;;;;5074061;28;20073;-68
2021/10/27 03:06:42;;;;;;;37.63;18.45;;;;;;;;;;5074066;28;20025;-66
2021/10/27 03:09:07;;;;;;;39.50;18.30;;;;;;;;;;5074550;28;20016;-65
2021/10/27 03:11:32;;;;;;;36.05;17.48;;;;;;;;;;5074148;28;20059;-67
2021/10/27 03:13:58;;;;;;;35.53;18.40;;;;;;;;;;5073829;28;20499;-68
2021/10/27 03:16:23;;;;;;;34.97;18.15;;;;;;;;;;5073842;28;20031;-67
2021/10/27 03:18:48;;;;;;;37.72;17.90;;;;;;;;;;5073989;28;20025;-67
2021/10/27 03:21:14;;;;;;;36.17;18.25;;;;;;;;;;5073763;28;20481;-68
2021/10/27 03:23:39;;;;;;;42.00;18.48;;;;;;;;;;5073597;28;20062;-68
2021/10/27 03:26:04;;;;;;;41.83;19.48;;;;;;;;;;5073701;28;20012;-66
2021/10/27 03:28:30;;;;;;;41.83;17.63;;;;;;;;;;5073852;28;20004;-68
2021/10/27 03:30:56;;;;;;;45.88;19.25;;;;;;;;;;5073946;28;20473;-69
2021/10/27 03:33:22;;;;;;;37.67;17.45;;;;;;;;;;5072856;28;20027;-66
2021/10/27 03:35:47;;;;;;;33.35;17.63;;;;;;;;;;5055578;28;20024;-68
2021/10/27 03:38:13;;;;;;;35.13;17.73;;;;;;;;;;5073472;28;20062;-68
2021/10/27 03:40:38;;;;;;;35.58;17.38;;;;;;;;;;5074132;28;20012;-66
2021/10/27 03:43:03;;;;;;;43.28;17.88;;;;;;;;;;5073782;28;20354;-68
2021/10/27 03:45:29;;;;;;;42.55;18.63;;;;;;;;;;5073624;28;20016;-67
2021/10/27 03:47:54;;;;;;;34.42;17.30;;;;;;;;;;5073133;28;20021;-66
2021/10/27 03:50:19;;;;;;;39.85;18.20;;;;;;;;;;5073368;28;20453;-68
2021/10/27 03:52:45;;;;;;;33.80;17.35;;;;;;;;;;5073302;28;20024;-67
2021/10/27 03:55:11;;;;;;;33.70;17.77;;;;;;;;;;5073269;28;20032;-69
2021/10/27 03:57:36;;;;;;;37.55;17.23;;;;;;;;;;5073381;28;20028;-68
2021/10/27 04:00:01;;;;;;;37.83;18.10;;;;;;;;;;5055224;28;20111;-69
2021/10/27 04:02:27;;;;;;;35.20;16.83;;;;;;;;;;5072448;28;20048;-68
2021/10/27 04:04:53;;;;;;;35.55;17.20;;;;;;;;;;5073616;28;20031;-67
2021/10/27 04:07:18;;;;;;;35.72;17.13;;;;;;;;;;5073256;28;20070;-69
2021/10/27 04:09:43;;;;;;;47.42;18.80;;;;;;;;;;5072956;28;20035;-69
2021/10/27 04:12:09;;;;;;;43.90;18.77;;;;;;;;;;5073264;28;20083;-69
2021/10/27 04:14:34;;;;;;;51.40;18.55;;;;;;;;;;5073063;28;20538;-69
2021/10/27 04:17:00;;;;;;;44.38;18.50;;;;;;;;;;5072967;28;20399;-68
2021/10/27 04:19:25;;;;;;;45.30;19.23;;;;;;;;;;5072911;28;20575;-70
2021/10/27 04:21:51;;;;;;;43.17;19.55;;;;;;;;;;5072920;28;20027;-67
2021/10/27 04:24:16;;;;;;;42.83;20.52;;;;;;;;;;5072781;28;20025;-68
2021/10/27 04:26:42;;;;;;;43.15;20.45;;;;;;;;;;5072749;28;20082;-68
2021/10/27 04:29:07;;;;;;;42.63;20.02;;;;;;;;;;5072946;28;20024;-68
2021/10/27 04:31:32;;;;;;;40.13;18.83;;;;;;;;;;5073359;28;20028;-68
2021/10/27 04:33:58;;;;;;;41.20;18.38;;;;;;;;;;5072677;28;20029;-68
2021/10/27 04:36:23;;;;;;;38.58;19.13;;;;;;;;;;5072732;28;20032;-68
2021/10/27 04:38:49;;;;;;;39.60;18.52;;;;;;;;;;5072833;28;20028;-67
2021/10/27 04:41:14;;;;;;;38.45;19.58;;;;;;;;;;5073016;28;20021;-67
2021/10/27 04:43:39;;;;;;;42.88;20.08;;;;;;;;;;5072672;28;20017;-68
2021/10/27 04:46:05;;;;;;;42.72;20.55;;;;;;;;;;5077312;28;20021;-69
2021/10/27 04:48:30;;;;;;;46.78;20.83;;;;;;;;;;5076762;28;20016;-68
2021/10/27 04:50:55;;;;;;;46.58;22.05;;;;;;;;;;5076827;28;20020;-68
2021/10/27 04:53:22;;;;;;;49.88;23.73;;;;;;;;;;5076601;28;20420;-68
2021/10/27 04:55:48;;;;;;;48.67;23.70;;;;;;;;;;5076374;28;20009;-68
2021/10/27 04:58:13;;;;;;;51.72;24.88;;;;;;;;;;5058553;28;20032;-67
2021/10/27 05:00:39;;;;;;;55.13;23.90;;;;;;;;;;5076698;28;20020;-69
2021/10/27 05:03:04;;;;;;;53.67;24.52;;;;;;;;;;5076395;28;20425;-67
2021/10/27 05:05:30;;;;;;;45.22;24.70;;;;;;;;;;5076661;28;20021;-67
2021/10/27 05:07:59;;;;;;;48.47;21.58;;;;;;;;;;5076649;28;20025;-68
2021/10/27 05:10:24;;;;;;;43.22;21.00;;;;;;;;;;5076178;28;20388;-67
2021/10/27 05:12:50;;;;;;;41.40;20.02;;;;;;;;;;5076562;28;20024;-69
2021/10/27 05:15:15;;;;;;;42.58;18.83;;;;;;;;;;5076308;28;20016;-69
2021/10/27 05:17:40;;;;;;;40.08;18.25;;;;;;;;;;5075846;28;20028;-68
2021/10/27 05:20:06;;;;;;;36.55;18.02;;;;;;;;;;5076417;28;20419;-67
2021/10/27 05:22:31;;;;;;;38.47;18.33;;;;;;;;;;5076201;28;20050;-66
2021/10/27 05:24:56;;;;;;;47.97;18.33;;;;;;;;;;5076115;28;20096;-68
2021/10/27 05:27:22;;;;;;;36.88;18.13;;;;;;;;;;5075862;28;20111;-68
2021/10/27 05:29:47;;;;;;;44.22;17.75;;;;;;;;;;5075873;28;20071;-67
2021/10/27 05:32:12;;;;;;;46.17;18.55;;;;;;;;;;5075968;28;20063;-67
2021/10/27 05:34:38;;;;;;;36.28;18.55;;;;;;;;;;5076118;28;20021;-68
2021/10/27 05:37:04;;;;;;;34.25;17.45;;;;;;;;;;5058227;28;20094;-69
2021/10/27 05:39:30;;;;;;;42.10;18.77;;;;;;;;;;5075718;28;20036;-68
2021/10/27 05:41:55;;;;;;;46.55;18.50;;;;;;;;;;5075417;28;20028;-68
2021/10/27 05:44:21;;;;;;;43.53;20.27;;;;;;;;;;5075630;28;20008;-68
2021/10/27 05:46:50;;;;;;;52.60;20.98;;;;;;;;;;5075690;28;20381;-68
2021/10/27 05:49:37;;;;;;;40.38;19.05;;;;;;;;;;5075759;28;20036;-69
2021/10/27 05:57:21;;;;;;;36.28;18.73;;;;;;;;;;5075683;28;20047;-67
2021/10/27 05:59:48;;;;;;;42.22;19.45;;;;;;;;;;5075365;28;20016;-67
2021/10/27 06:02:14;;;;;;;38.83;17.95;;;;;;;;;;5075014;28;20119;-68
2021/10/27 06:04:39;;;;;;;30.98;15.93;;;;;;;;;;5075373;28;20069;-69
2021/10/27 06:07:04;;;;;;;31.95;17.27;;;;;;;;;;5075281;28;20384;-68
2021/10/27 06:09:30;;;;;;;37.78;17.92;;;;;;;;;;5075509;28;20027;-69
2021/10/27 06:11:59;;;;;;;38.53;18.13;;;;;;;;;;5075809;28;20153;-68
2021/10/27 06:14:24;;;;;;;31.20;15.38;;;;;;;;;;5075065;28;20016;-68
2021/10/27 06:16:50;;;;;;;32.90;15.18;;;;;;;;;;5075135;28;20100;-71
2021/10/27 06:19:15;;;;;;;34.67;16.98;;;;;;;;;;5074828;28;20074;-69
2021/10/27 06:21:40;;;;;;;40.50;20.23;;;;;;;;;;5074972;28;20415;-69
2021/10/27 06:24:07;;;;;;;39.92;21.60;;;;;;;;;;5075142;28;20023;-70
2021/10/27 06:26:32;;;;;;;47.40;21.88;;;;;;;;;;5075237;28;20100;-69
2021/10/27 06:29:43;;;;;;;44.00;20.60;;;;;;;;;;5075106;28;20089;-70
2021/10/27 06:31:57;;;;;;;48.00;21.40;;;;;;;;;;5063403;28;20040;-70
2021/10/27 06:34:31;;;;;;;44.13;21.10;;;;;;;;;;5075015;28;20020;-69
2021/10/27 06:47:49;;;;;;;40.92;20.95;;;;;;;;;;5074384;28;20112;-69
2021/10/27 06:50:14;;;;;;;46.47;22.02;;;;;;;;;;5074605;28;20051;-69
2021/10/27 06:52:39;;;;;;;40.05;21.48;;;;;;;;;;5074542;28;20013;-65
2021/10/27 06:55:05;;;;;;;38.35;20.10;;;;;;;;;;5074807;28;20514;-66
2021/10/27 06:57:31;;;;;;;40.75;22.77;;;;;;;;;;5074349;28;20013;-71
2021/10/27 07:00:03;;;;;;;41.15;20.98;;;;;;;;;;5074055;28;20021;-70
2021/10/27 07:16:00;;;;;;;41.17;20.63;;;;;;;;;;5073842;28;20039;-67
2021/10/27 07:18:26;;;;;;;43.72;21.38;;;;;;;;;;5074084;28;20039;-67
2021/10/27 07:20:51;;;;;;;39.05;22.30;;;;;;;;;;5073971;28;20044;-67
2021/10/27 07:23:17;;;;;;;41.05;21.48;;;;;;;;;;5073414;28;20065;-67
2021/10/27 07:25:43;;;;;;;44.03;23.08;;;;;;;;;;5073459;28;20024;-66
2021/10/27 07:28:09;;;;;;;45.13;23.30;;;;;;;;;;5073595;28;20013;-67
2021/10/27 07:30:34;;;;;;;42.67;22.50;;;;;;;;;;5073456;28;20039;-67
2021/10/27 07:33:00;;;;;;;47.90;26.98;;;;;;;;;;5070301;28;20095;-75
2021/10/27 07:40:41;;;;;;;56.25;28.45;;;;;;;;;;5072996;28;20518;-73
2021/10/27 07:43:26;;;;;;;53.88;28.02;;;;;;;;;;5072969;28;20012;-75
2021/10/27 07:45:53;;;;;;;52.42;26.90;;;;;;;;;;5072476;28;20055;-76
2021/10/27 07:48:18;;;;;;;55.50;28.67;;;;;;;;;;5070540;28;20013;-75
2021/10/27 07:50:44;;;;;;;71.18;28.67;;;;;;;;;;5072769;28;20421;-75
2021/10/27 07:53:11;;;;;;;81.63;34.17;;;;;;;;;;5054986;28;20020;-75
2021/10/27 07:55:39;;;;;;;62.03;31.23;;;;;;;;;;5072713;28;20017;-74
2021/10/27 07:58:05;;;;;;;73.93;31.70;;;;;;;;;;5054907;28;20028;-71
2021/10/27 08:00:30;;;;;;;55.08;29.05;;;;;;;;;;5072714;28;20473;-75
2021/10/27 08:03:00;;;;;;;66.28;29.88;;;;;;;;;;5071656;28;20049;-75
2021/10/27 08:05:26;;;;;;;56.10;28.88;;;;;;;;;;5070534;28;20130;-75
2021/10/27 08:07:52;;;;;;;55.20;26.42;;;;;;;;;;5070591;28;20031;-75
2021/10/27 08:10:18;;;;;;;59.25;27.48;;;;;;;;;;5070832;28;20408;-73
2021/10/27 08:12:45;;;;;;;45.20;23.58;;;;;;;;;;5071016;28;20025;-76
2021/10/27 08:15:11;;;;;;;52.72;25.98;;;;;;;;;;5052994;28;20443;-75
2021/10/27 08:17:37;;;;;;;52.50;27.52;;;;;;;;;;5070786;28;20048;-75
2021/10/27 08:20:04;;;;;;;54.03;28.00;;;;;;;;;;5074329;28;20027;-81
2021/10/27 08:22:30;;;;;;;58.20;26.40;;;;;;;;;;5072851;28;20426;-77
2021/10/27 08:24:56;;;;;;;50.55;27.73;;;;;;;;;;5072730;28;20026;-74
2021/10/27 08:27:22;;;;;;;44.72;26.05;;;;;;;;;;5072160;28;20052;-75
2021/10/27 08:29:48;;;;;;;47.10;25.33;;;;;;;;;;5054016;28;20052;-78
2021/10/27 08:35:05;;;;;;;56.25;26.73;;;;;;;;;;5048908;28;20028;-73
2021/10/27 08:37:31;;;;;;;52.08;24.52;;;;;;;;;;5072208;28;20020;-71
2021/10/27 08:39:56;;;;;;;64.15;26.98;;;;;;;;;;5071945;28;20119;-70
2021/10/27 08:42:21;;;;;;;53.95;27.88;;;;;;;;;;5054054;28;20017;-70
2021/10/27 08:44:47;;;;;;;49.17;25.15;;;;;;;;;;5072466;28;20035;-77
2021/10/27 08:47:13;;;;;;;48.08;26.13;;;;;;;;;;5071596;28;20020;-75
2021/10/27 08:49:39;;;;;;;240.27;49.08;;;;;;;;;;5071729;28;20020;-74
2021/10/27 08:52:09;;;;;;;53.53;26.30;;;;;;;;;;5073767;28;20031;-77
2021/10/27 08:54:34;;;;;;;46.60;24.27;;;;;;;;;;5073384;28;20407;-78
2021/10/27 08:57:08;;;;;;;47.22;24.65;;;;;;;;;;5073330;28;20035;-72
2021/10/27 09:02:30;;;;;;;40.83;23.42;;;;;;;;;;5071380;28;20009;-73
2021/10/27 09:35:46;;;;;;;34.25;18.42;;;;;;;;;;5075688;28;20086;-75
2021/10/27 09:43:38;;;;;;;35.78;19.52;;;;;;;;;;5074623;28;20021;-74
2021/10/27 10:05:08;;;;;;;20.13;13.07;;;;;;;;;;5075239;28;20058;-74
2021/10/27 10:07:34;;;;;;;24.25;12.90;;;;;;;;;;5074728;28;20028;-72
2021/10/27 10:10:01;;;;;;;23.38;13.38;;;;;;;;;;5074755;28;20028;-75
2021/10/27 10:12:27;;;;;;;27.55;15.63;;;;;;;;;;5074820;28;20465;-74
2021/10/27 10:14:53;;;;;;;18.17;11.23;;;;;;;;;;5074729;28;20022;-74
2021/10/27 10:17:19;;;;;;;23.92;11.73;;;;;;;;;;5073528;28;20086;-72
2021/10/27 10:19:44;;;;;;;23.75;13.02;;;;;;;;;;5073816;28;20471;-75
2021/10/27 10:22:28;;;;;;;21.35;10.73;;;;;;;;;;5074980;28;20017;-76
2021/10/27 10:24:54;;;;;;;22.75;12.30;;;;;;;;;;5074827;28;20030;-73
2021/10/27 10:27:38;;;;;;;18.88;10.13;;;;;;;;;;5073691;28;20124;-72
2021/10/27 10:30:22;;;;;;;21.45;11.68;;;;;;;;;;5074355;28;20051;-75
2021/10/27 10:32:58;;;;;;;21.45;12.38;;;;;;;;;;5074740;28;20020;-75
2021/10/27 10:35:33;;;;;;;45.08;13.25;;;;;;;;;;5074673;28;20046;-76
2021/10/27 10:38:10;;;;;;;24.92;12.43;;;;;;;;;;5056766;28;20086;-80
2021/10/27 10:41:00;;;;;;;23.83;11.27;;;;;;;;;;5074305;28;20552;-78
2021/10/27 11:00:12;;;;;;;18.15;8.27;;;;;;;;;;5073849;28;20629;-73
2021/10/27 11:38:17;;;;;;;13.30;7.80;;;;;;;;;;5073654;28;20039;-74
2021/10/27 11:40:48;;;;;;;15.43;7.65;;;;;;;;;;5072813;28;20059;-74
2021/10/27 11:50:59;;;;;;;14.18;7.50;;;;;;;;;;5071099;28;20112;-75
2021/10/27 11:53:27;;;;;;;12.55;6.43;;;;;;;;;;5070752;28;20396;-74
2021/10/27 11:55:53;;;;;;;11.13;7.25;;;;;;;;;;5071933;28;20419;-76
2021/10/27 11:58:20;;;;;;;15.95;7.28;;;;;;;;;;5072480;28;20032;-74
2021/10/27 12:00:48;;;;;;;12.57;7.32;;;;;;;;;;5054070;28;20016;-75
2021/10/27 12:03:16;;;;;;;17.30;8.00;;;;;;;;;;5072391;28;20037;-74
2021/10/27 12:16:25;;;;;;;12.95;7.50;;;;;;;;;;5072795;28;20530;-74
2021/10/27 12:18:57;;;;;;;13.43;7.13;;;;;;;;;;5072325;28;20522;-74
2021/10/27 12:21:23;;;;;;;12.35;6.82;;;;;;;;;;5072075;28;20032;-73
2021/10/27 12:23:50;;;;;;;13.38;7.13;;;;;;;;;;5072238;28;20021;-72
2021/10/27 12:26:17;;;;;;;13.32;7.30;;;;;;;;;;5054359;28;20028;-73
2021/10/27 12:28:43;;;;;;;15.60;8.02;;;;;;;;;;5072422;28;20473;-74
2021/10/27 12:31:14;;;;;;;15.88;7.32;;;;;;;;;;5054030;28;20021;-73
2021/10/27 12:33:40;;;;;;;16.83;7.47;;;;;;;;;;5071931;28;20025;-74
2021/10/27 12:36:18;;;;;;;14.18;6.50;;;;;;;;;;5072504;28;20013;-73
2021/10/27 12:39:03;;;;;;;11.73;6.65;;;;;;;;;;5072447;28;20451;-73
2021/10/27 12:41:28;;;;;;;14.10;6.60;;;;;;;;;;5053661;28;20473;-73
2021/10/27 12:43:54;;;;;;;14.18;6.97;;;;;;;;;;5072368;28;20028;-74
2021/10/27 12:46:22;;;;;;;12.65;6.70;;;;;;;;;;5072444;28;20024;-73
2021/10/27 12:48:47;;;;;;;11.57;6.82;;;;;;;;;;5054397;28;20369;-73
2021/10/27 12:51:13;;;;;;;8.93;5.70;;;;;;;;;;5072103;28;20024;-73
2021/10/27 12:53:41;;;;;;;15.00;6.47;;;;;;;;;;5071979;28;20044;-74
2021/10/27 12:56:08;;;;;;;13.65;6.40;;;;;;;;;;5072377;28;20095;-74
2021/10/27 12:58:35;;;;;;;10.98;6.97;;;;;;;;;;5053996;28;20037;-74
2021/10/27 13:03:49;;;;;;;14.90;7.22;;;;;;;;;;5071852;28;20076;-74
2021/10/27 13:19:07;;;;;;;12.30;6.95;;;;;;;;;;5075621;28;20117;-74
2021/10/27 13:30:14;;;;;;;14.87;7.50;;;;;;;;;;5013257;28;20125;-71
2021/10/27 13:32:22;;;;;;;13.82;7.50;;;;;;;;;;5062874;28;20032;-72
2021/10/27 13:34:48;;;;;;;11.70;7.20;;;;;;;;;;5057404;28;20024;-73
2021/10/27 13:37:13;;;;;;;50.38;8.63;;;;;;;;;;5075469;28;20040;-72
2021/10/27 13:39:39;;;;;;;13.13;6.63;;;;;;;;;;5081063;28;20066;-70
2021/10/27 13:42:21;;;;;;;21.40;7.00;;;;;;;;;;5078948;28;20031;-72
2021/10/27 13:47:28;;;;;;;11.27;6.25;;;;;;;;;;5074786;28;20028;-72
2021/10/27 14:06:47;;;;;;;20.77;8.95;;;;;;;;;;5075441;28;20044;-71
2021/10/27 14:14:12;;;;;;;23.08;9.52;;;;;;;;;;5074862;28;20024;-68
2021/10/27 14:19:21;;;;;;;15.18;6.88;;;;;;;;;;5073992;28;20074;-70
2021/10/27 18:37:45;;;;;;;116.65;47.08;;;;;;;;;;4703156;23;20041;-71
2021/10/27 18:40:08;;;;;;;134.43;51.35;;;;;;;;;;5046466;28;20033;-70
2021/10/27 18:42:38;;;;;;;97.78;39.30;;;;;;;;;;5054640;28;20374;-71
2021/10/27 18:45:04;;;;;;;88.53;39.55;;;;;;;;;;5053261;28;20031;-69
2021/10/27 18:47:32;;;;;;;141.13;49.90;;;;;;;;;;5054430;28;20031;-70
2021/10/27 18:49:57;;;;;;;219.27;75.53;;;;;;;;;;5053864;28;20370;-71
2021/10/27 18:55:03;;;;;;;206.13;78.50;;;;;;;;;;5054036;28;20529;-71
2021/10/27 19:00:14;;;;;;;191.40;66.25;;;;;;;;;;5053700;28;20037;-70
2021/10/27 20:59:25;;;;;;;161.85;60.30;;;;;;;;;;4542982;23;20046;-69
2021/10/27 21:01:42;;;;;;;151.38;62.85;;;;;;;;;;5024144;28;20038;-70
